sensor_id;sensor_type;location;lat;lon;timestamp;temperature;humidity
2447;DHT22;26430;48.818;9.244;2023-09-08T00:02:23;18.60;99.90
2447;DHT22;26430;48.818;9.244;2023-09-08T00:04:49;18.60;99.90
2447;DHT22;26430;48.818;9.244;2023-09-08T00:07:15;18.60;99.90
2447;DHT22;26430;48.818;9.244;2023-09-08T00:09:40;18.50;99.90
2447;DHT22;26430;48.818;9.244;2023-09-08T00:12:06;18.60;99.90
2447;DHT22;26430;48.818;9.244;2023-09-08T00:14:32;18.60;99.90
2447;DHT22;26430;48.818;9.244;2023-09-08T00:16:57;18.50;99.90
2447;DHT22;26430;48.818;9.244;2023-09-08T00:19:23;18.50;99.90
2447;DHT22;26430;48.818;9.244;2023-09-08T00:21:49;18.50;99.90
2447;DHT22;26430;48.818;9.244;2023-09-08T00:24:15;18.50;99.90
2447;DHT22;26430;48.818;9.244;2023-09-08T00:26:40;18.50;99.90
2447;DHT22;26430;48.818;9.244;2023-09-08T00:29:06;18.50;99.90
2447;DHT22;26430;48.818;9.244;2023-09-08T00:31:32;18.40;99.90
2447;DHT22;26430;48.818;9.244;2023-09-08T00:33:58;18.40;99.90
2447;DHT22;26430;48.818;9.244;2023-09-08T00:36:23;18.30;99.90
2447;DHT22;26430;48.818;9.244;2023-09-08T00:38:49;18.30;99.90
2447;DHT22;26430;48.818;9.244;2023-09-08T00:41:14;18.30;99.90
2447;DHT22;26430;48.818;9.244;2023-09-08T00:43:40;18.30;99.90
2447;DHT22;26430;48.818;9.244;2023-09-08T00:46:06;18.20;99.90
2447;DHT22;26430;48.818;9.244;2023-09-08T00:48:32;18.10;99.90
2447;DHT22;26430;48.818;9.244;2023-09-08T00:50:59;18.10;99.90
2447;DHT22;26430;48.818;9.244;2023-09-08T00:53:25;18.10;99.90
2447;DHT22;26430;48.818;9.244;2023-09-08T00:55:51;18.00;99.90
2447;DHT22;26430;48.818;9.244;2023-09-08T00:58:17;18.00;99.90
2447;DHT22;26430;48.818;9.244;2023-09-08T01:00:43;18.00;99.90
2447;DHT22;26430;48.818;9.244;2023-09-08T01:03:11;17.90;99.90
2447;DHT22;26430;48.818;9.244;2023-09-08T01:05:36;18.00;99.90
2447;DHT22;26430;48.818;9.244;2023-09-08T01:08:02;18.00;99.90
2447;DHT22;26430;48.818;9.244;2023-09-08T01:10:28;18.00;99.90
2447;DHT22;26430;48.818;9.244;2023-09-08T01:12:54;18.00;99.90
2447;DHT22;26430;48.818;9.244;2023-09-08T01:15:20;18.00;99.90
2447;DHT22;26430;48.818;9.244;2023-09-08T01:17:45;17.90;99.90
2447;DHT22;26430;48.818;9.244;2023-09-08T01:20:27;17.90;99.90
2447;DHT22;26430;48.818;9.244;2023-09-08T01:23:17;17.90;99.90
2447;DHT22;26430;48.818;9.244;2023-09-08T01:25:59;17.80;99.90
2447;DHT22;26430;48.818;9.244;2023-09-08T01:28:29;17.80;99.90
2447;DHT22;26430;48.818;9.244;2023-09-08T01:30:55;17.80;99.90
2447;DHT22;26430;48.818;9.244;2023-09-08T01:33:22;17.70;99.90
2447;DHT22;26430;48.818;9.244;2023-09-08T01:35:48;17.70;99.90
2447;DHT22;26430;48.818;9.244;2023-09-08T01:38:14;17.70;99.90
2447;DHT22;26430;48.818;9.244;2023-09-08T01:40:39;17.80;99.90
2447;DHT22;26430;48.818;9.244;2023-09-08T01:43:05;17.70;99.90
2447;DHT22;26430;48.818;9.244;2023-09-08T01:45:31;17.60;99.90
2447;DHT22;26430;48.818;9.244;2023-09-08T01:47:56;17.60;99.90
2447;DHT22;26430;48.818;9.244;2023-09-08T01:50:22;17.50;99.90
2447;DHT22;26430;48.818;9.244;2023-09-08T01:52:49;17.50;99.90
2447;DHT22;26430;48.818;9.244;2023-09-08T01:55:15;17.40;99.90
2447;DHT22;26430;48.818;9.244;2023-09-08T01:57:42;17.40;99.90
2447;DHT22;26430;48.818;9.244;2023-09-08T02:00:09;17.40;99.90
2447;DHT22;26430;48.818;9.244;2023-09-08T02:02:34;17.40;99.90
2447;DHT22;26430;48.818;9.244;2023-09-08T02:05:00;17.40;99.90
2447;DHT22;26430;48.818;9.244;2023-09-08T02:07:26;17.40;99.90
2447;DHT22;26430;48.818;9.244;2023-09-08T02:09:51;17.50;99.90
2447;DHT22;26430;48.818;9.244;2023-09-08T02:12:17;17.70;99.90
2447;DHT22;26430;48.818;9.244;2023-09-08T02:14:42;17.60;99.90
2447;DHT22;26430;48.818;9.244;2023-09-08T02:17:08;17.80;99.90
2447;DHT22;26430;48.818;9.244;2023-09-08T02:19:33;17.50;99.90
2447;DHT22;26430;48.818;9.244;2023-09-08T02:21:59;17.60;99.90
2447;DHT22;26430;48.818;9.244;2023-09-08T02:24:24;17.60;99.90
2447;DHT22;26430;48.818;9.244;2023-09-08T02:26:50;17.20;99.90
2447;DHT22;26430;48.818;9.244;2023-09-08T02:29:15;17.00;99.90
2447;DHT22;26430;48.818;9.244;2023-09-08T02:31:41;17.00;99.90
2447;DHT22;26430;48.818;9.244;2023-09-08T02:34:06;16.90;99.90
2447;DHT22;26430;48.818;9.244;2023-09-08T02:36:32;17.00;99.90
2447;DHT22;26430;48.818;9.244;2023-09-08T02:38:58;17.10;99.90
2447;DHT22;26430;48.818;9.244;2023-09-08T02:41:23;17.20;99.90
2447;DHT22;26430;48.818;9.244;2023-09-08T02:43:49;17.20;99.90
2447;DHT22;26430;48.818;9.244;2023-09-08T02:46:15;17.20;99.90
2447;DHT22;26430;48.818;9.244;2023-09-08T02:48:41;17.10;99.90
2447;DHT22;26430;48.818;9.244;2023-09-08T02:51:07;17.10;99.90
2447;DHT22;26430;48.818;9.244;2023-09-08T02:53:33;17.20;99.90
2447;DHT22;26430;48.818;9.244;2023-09-08T02:55:59;17.30;99.90
2447;DHT22;26430;48.818;9.244;2023-09-08T02:58:25;17.30;99.90
2447;DHT22;26430;48.818;9.244;2023-09-08T03:00:51;17.30;99.90
2447;DHT22;26430;48.818;9.244;2023-09-08T03:03:20;17.40;99.90
2447;DHT22;26430;48.818;9.244;2023-09-08T03:05:46;17.40;99.90
2447;DHT22;26430;48.818;9.244;2023-09-08T03:08:11;17.30;99.90
2447;DHT22;26430;48.818;9.244;2023-09-08T03:10:37;17.30;99.90
2447;DHT22;26430;48.818;9.244;2023-09-08T03:13:05;17.40;99.90
2447;DHT22;26430;48.818;9.244;2023-09-08T03:15:31;17.40;99.90
2447;DHT22;26430;48.818;9.244;2023-09-08T03:17:58;17.30;99.90
2447;DHT22;26430;48.818;9.244;2023-09-08T03:20:24;17.30;99.90
2447;DHT22;26430;48.818;9.244;2023-09-08T03:22:51;17.40;99.90
2447;DHT22;26430;48.818;9.244;2023-09-08T03:25:17;17.40;99.90
2447;DHT22;26430;48.818;9.244;2023-09-08T03:27:43;17.40;99.90
2447;DHT22;26430;48.818;9.244;2023-09-08T03:30:08;17.60;99.90
2447;DHT22;26430;48.818;9.244;2023-09-08T03:32:34;17.70;99.90
2447;DHT22;26430;48.818;9.244;2023-09-08T03:34:59;17.70;99.90
2447;DHT22;26430;48.818;9.244;2023-09-08T03:37:25;17.60;99.90
2447;DHT22;26430;48.818;9.244;2023-09-08T03:39:53;17.50;99.90
2447;DHT22;26430;48.818;9.244;2023-09-08T03:42:19;17.30;99.90
2447;DHT22;26430;48.818;9.244;2023-09-08T03:44:44;17.30;99.90
2447;DHT22;26430;48.818;9.244;2023-09-08T03:47:10;17.20;99.90
2447;DHT22;26430;48.818;9.244;2023-09-08T03:49:36;17.10;99.90
2447;DHT22;26430;48.818;9.244;2023-09-08T03:52:01;17.30;99.90
2447;DHT22;26430;48.818;9.244;2023-09-08T03:54:27;17.50;99.90
2447;DHT22;26430;48.818;9.244;2023-09-08T03:56:52;17.60;99.90
2447;DHT22;26430;48.818;9.244;2023-09-08T03:59:18;17.90;99.90
2447;DHT22;26430;48.818;9.244;2023-09-08T04:01:43;17.80;99.90
2447;DHT22;26430;48.818;9.244;2023-09-08T04:04:09;17.60;99.90
2447;DHT22;26430;48.818;9.244;2023-09-08T04:06:34;17.50;99.90
2447;DHT22;26430;48.818;9.244;2023-09-08T04:09:00;17.50;99.90
2447;DHT22;26430;48.818;9.244;2023-09-08T04:11:25;17.00;99.90
2447;DHT22;26430;48.818;9.244;2023-09-08T04:13:51;16.70;99.90
2447;DHT22;26430;48.818;9.244;2023-09-08T04:16:17;16.40;99.90
2447;DHT22;26430;48.818;9.244;2023-09-08T04:18:43;16.00;99.90
2447;DHT22;26430;48.818;9.244;2023-09-08T04:21:08;15.80;99.90
2447;DHT22;26430;48.818;9.244;2023-09-08T04:23:34;15.60;99.90
2447;DHT22;26430;48.818;9.244;2023-09-08T04:25:59;15.80;99.90
2447;DHT22;26430;48.818;9.244;2023-09-08T04:28:25;16.00;99.90
2447;DHT22;26430;48.818;9.244;2023-09-08T04:30:51;16.30;99.90
2447;DHT22;26430;48.818;9.244;2023-09-08T04:33:16;16.20;99.90
2447;DHT22;26430;48.818;9.244;2023-09-08T04:35:42;16.00;99.90
2447;DHT22;26430;48.818;9.244;2023-09-08T04:38:08;15.70;99.90
2447;DHT22;26430;48.818;9.244;2023-09-08T04:40:33;16.00;99.90
2447;DHT22;26430;48.818;9.244;2023-09-08T04:42:59;16.30;99.90
2447;DHT22;26430;48.818;9.244;2023-09-08T04:45:25;16.40;99.90
2447;DHT22;26430;48.818;9.244;2023-09-08T04:47:50;16.50;99.90
2447;DHT22;26430;48.818;9.244;2023-09-08T04:50:16;16.30;99.90
2447;DHT22;26430;48.818;9.244;2023-09-08T04:52:41;16.30;99.90
2447;DHT22;26430;48.818;9.244;2023-09-08T04:55:07;16.30;99.90
2447;DHT22;26430;48.818;9.244;2023-09-08T04:57:33;16.20;99.90
2447;DHT22;26430;48.818;9.244;2023-09-08T04:59:58;16.20;99.90
2447;DHT22;26430;48.818;9.244;2023-09-08T05:02:24;16.00;99.90
2447;DHT22;26430;48.818;9.244;2023-09-08T05:04:50;16.10;99.90
2447;DHT22;26430;48.818;9.244;2023-09-08T05:07:16;15.90;99.90
2447;DHT22;26430;48.818;9.244;2023-09-08T05:09:42;16.00;99.90
2447;DHT22;26430;48.818;9.244;2023-09-08T05:12:08;16.20;99.90
2447;DHT22;26430;48.818;9.244;2023-09-08T05:14:33;16.30;99.90
2447;DHT22;26430;48.818;9.244;2023-09-08T05:16:59;16.60;99.90
2447;DHT22;26430;48.818;9.244;2023-09-08T05:19:24;16.50;99.90
2447;DHT22;26430;48.818;9.244;2023-09-08T05:21:54;16.50;99.90
2447;DHT22;26430;48.818;9.244;2023-09-08T05:24:20;16.50;99.90
2447;DHT22;26430;48.818;9.244;2023-09-08T05:26:46;16.60;99.90
2447;DHT22;26430;48.818;9.244;2023-09-08T05:29:11;16.50;99.90
2447;DHT22;26430;48.818;9.244;2023-09-08T05:31:37;16.50;99.90
2447;DHT22;26430;48.818;9.244;2023-09-08T05:34:02;16.50;99.90
2447;DHT22;26430;48.818;9.244;2023-09-08T05:36:28;16.60;99.90
2447;DHT22;26430;48.818;9.244;2023-09-08T05:38:55;16.50;99.90
2447;DHT22;26430;48.818;9.244;2023-09-08T05:41:21;16.60;99.90
2447;DHT22;26430;48.818;9.244;2023-09-08T05:43:46;16.60;99.90
2447;DHT22;26430;48.818;9.244;2023-09-08T05:46:12;16.70;99.90
2447;DHT22;26430;48.818;9.244;2023-09-08T05:48:38;16.70;99.90
2447;DHT22;26430;48.818;9.244;2023-09-08T05:51:04;16.70;99.90
2447;DHT22;26430;48.818;9.244;2023-09-08T05:53:32;16.70;99.90
2447;DHT22;26430;48.818;9.244;2023-09-08T05:55:57;16.80;99.90
2447;DHT22;26430;48.818;9.244;2023-09-08T05:58:23;16.90;99.90
2447;DHT22;26430;48.818;9.244;2023-09-08T06:00:53;16.90;99.90
2447;DHT22;26430;48.818;9.244;2023-09-08T06:03:19;16.90;99.90
2447;DHT22;26430;48.818;9.244;2023-09-08T06:05:44;16.90;99.90
2447;DHT22;26430;48.818;9.244;2023-09-08T06:08:10;17.00;99.90
2447;DHT22;26430;48.818;9.244;2023-09-08T06:10:35;17.00;99.90
2447;DHT22;26430;48.818;9.244;2023-09-08T06:13:01;16.80;99.90
2447;DHT22;26430;48.818;9.244;2023-09-08T06:15:27;16.80;99.90
2447;DHT22;26430;48.818;9.244;2023-09-08T06:17:52;16.70;99.90
2447;DHT22;26430;48.818;9.244;2023-09-08T06:20:18;16.80;99.90
2447;DHT22;26430;48.818;9.244;2023-09-08T06:22:43;16.80;99.90
2447;DHT22;26430;48.818;9.244;2023-09-08T06:25:09;16.70;99.90
2447;DHT22;26430;48.818;9.244;2023-09-08T06:27:35;16.80;99.90
2447;DHT22;26430;48.818;9.244;2023-09-08T06:30:00;16.90;99.90
2447;DHT22;26430;48.818;9.244;2023-09-08T06:32:26;17.10;99.90
2447;DHT22;26430;48.818;9.244;2023-09-08T06:34:51;17.30;99.90
2447;DHT22;26430;48.818;9.244;2023-09-08T06:37:17;16.90;99.90
2447;DHT22;26430;48.818;9.244;2023-09-08T06:39:42;16.90;99.90
2447;DHT22;26430;48.818;9.244;2023-09-08T06:42:08;17.10;99.90
2447;DHT22;26430;48.818;9.244;2023-09-08T06:44:33;17.30;99.90
2447;DHT22;26430;48.818;9.244;2023-09-08T06:46:59;17.10;99.90
2447;DHT22;26430;48.818;9.244;2023-09-08T06:49:24;17.20;99.90
2447;DHT22;26430;48.818;9.244;2023-09-08T06:51:50;17.20;99.90
2447;DHT22;26430;48.818;9.244;2023-09-08T06:54:16;17.30;99.90
2447;DHT22;26430;48.818;9.244;2023-09-08T06:56:41;17.40;99.90
2447;DHT22;26430;48.818;9.244;2023-09-08T06:59:07;17.40;99.90
2447;DHT22;26430;48.818;9.244;2023-09-08T07:01:32;17.60;99.90
2447;DHT22;26430;48.818;9.244;2023-09-08T07:03:58;17.60;99.90
2447;DHT22;26430;48.818;9.244;2023-09-08T07:06:23;17.80;99.90
2447;DHT22;26430;48.818;9.244;2023-09-08T07:08:49;18.00;99.90
2447;DHT22;26430;48.818;9.244;2023-09-08T07:11:18;18.20;99.90
2447;DHT22;26430;48.818;9.244;2023-09-08T07:13:43;18.30;99.90
2447;DHT22;26430;48.818;9.244;2023-09-08T07:16:09;18.40;99.90
2447;DHT22;26430;48.818;9.244;2023-09-08T07:18:34;18.50;99.90
2447;DHT22;26430;48.818;9.244;2023-09-08T07:21:02;18.50;99.90
2447;DHT22;26430;48.818;9.244;2023-09-08T07:23:28;18.60;99.90
2447;DHT22;26430;48.818;9.244;2023-09-08T07:25:53;18.80;99.90
2447;DHT22;26430;48.818;9.244;2023-09-08T07:28:19;18.80;99.90
2447;DHT22;26430;48.818;9.244;2023-09-08T07:30:44;18.90;99.90
2447;DHT22;26430;48.818;9.244;2023-09-08T07:33:10;19.10;99.90
2447;DHT22;26430;48.818;9.244;2023-09-08T07:35:37;19.20;99.90
2447;DHT22;26430;48.818;9.244;2023-09-08T07:38:03;19.30;99.90
2447;DHT22;26430;48.818;9.244;2023-09-08T07:40:28;19.40;99.90
2447;DHT22;26430;48.818;9.244;2023-09-08T07:42:54;19.50;99.90
2447;DHT22;26430;48.818;9.244;2023-09-08T07:45:19;19.60;99.90
2447;DHT22;26430;48.818;9.244;2023-09-08T07:47:45;19.70;99.90
2447;DHT22;26430;48.818;9.244;2023-09-08T07:50:25;19.80;99.90
2447;DHT22;26430;48.818;9.244;2023-09-08T07:52:52;19.90;99.90
2447;DHT22;26430;48.818;9.244;2023-09-08T07:55:18;19.90;99.90
2447;DHT22;26430;48.818;9.244;2023-09-08T07:57:45;20.00;99.90
2447;DHT22;26430;48.818;9.244;2023-09-08T08:00:12;20.00;99.90
2447;DHT22;26430;48.818;9.244;2023-09-08T08:02:43;20.10;99.90
2447;DHT22;26430;48.818;9.244;2023-09-08T08:05:09;20.10;99.90
2447;DHT22;26430;48.818;9.244;2023-09-08T08:07:35;20.20;99.90
2447;DHT22;26430;48.818;9.244;2023-09-08T08:10:00;20.40;99.90
2447;DHT22;26430;48.818;9.244;2023-09-08T08:12:27;20.50;99.90
2447;DHT22;26430;48.818;9.244;2023-09-08T08:14:52;20.60;99.90
2447;DHT22;26430;48.818;9.244;2023-09-08T08:17:18;20.60;99.90
2447;DHT22;26430;48.818;9.244;2023-09-08T08:19:45;20.70;99.90
2447;DHT22;26430;48.818;9.244;2023-09-08T08:22:10;20.90;99.90
2447;DHT22;26430;48.818;9.244;2023-09-08T08:24:36;21.00;99.90
2447;DHT22;26430;48.818;9.244;2023-09-08T08:27:02;21.10;99.90
2447;DHT22;26430;48.818;9.244;2023-09-08T08:29:28;21.30;99.90
2447;DHT22;26430;48.818;9.244;2023-09-08T08:31:54;21.50;99.90
2447;DHT22;26430;48.818;9.244;2023-09-08T08:34:20;21.60;99.90
2447;DHT22;26430;48.818;9.244;2023-09-08T08:36:45;21.70;99.90
2447;DHT22;26430;48.818;9.244;2023-09-08T08:39:11;21.90;99.90
2447;DHT22;26430;48.818;9.244;2023-09-08T08:41:36;21.80;99.90
2447;DHT22;26430;48.818;9.244;2023-09-08T08:44:06;21.80;99.90
2447;DHT22;26430;48.818;9.244;2023-09-08T08:46:33;21.90;99.90
2447;DHT22;26430;48.818;9.244;2023-09-08T08:49:01;21.90;99.90
2447;DHT22;26430;48.818;9.244;2023-09-08T08:51:28;22.10;99.90
2447;DHT22;26430;48.818;9.244;2023-09-08T08:53:55;22.20;99.90
2447;DHT22;26430;48.818;9.244;2023-09-08T08:56:22;22.30;99.90
2447;DHT22;26430;48.818;9.244;2023-09-08T08:58:49;22.50;99.90
2447;DHT22;26430;48.818;9.244;2023-09-08T09:01:16;22.50;99.90
2447;DHT22;26430;48.818;9.244;2023-09-08T09:03:49;22.50;99.90
2447;DHT22;26430;48.818;9.244;2023-09-08T09:06:15;22.60;99.90
2447;DHT22;26430;48.818;9.244;2023-09-08T09:08:43;22.70;99.90
2447;DHT22;26430;48.818;9.244;2023-09-08T09:11:09;22.70;99.90
2447;DHT22;26430;48.818;9.244;2023-09-08T09:13:35;22.70;99.90
2447;DHT22;26430;48.818;9.244;2023-09-08T09:16:01;23.00;99.90
2447;DHT22;26430;48.818;9.244;2023-09-08T09:18:29;23.10;99.90
2447;DHT22;26430;48.818;9.244;2023-09-08T09:20:58;23.30;99.90
2447;DHT22;26430;48.818;9.244;2023-09-08T09:23:31;23.40;99.90
2447;DHT22;26430;48.818;9.244;2023-09-08T09:25:57;23.40;99.90
2447;DHT22;26430;48.818;9.244;2023-09-08T09:28:24;23.40;99.90
2447;DHT22;26430;48.818;9.244;2023-09-08T09:30:51;23.50;99.90
2447;DHT22;26430;48.818;9.244;2023-09-08T09:33:17;23.70;99.90
2447;DHT22;26430;48.818;9.244;2023-09-08T09:35:48;23.70;99.90
2447;DHT22;26430;48.818;9.244;2023-09-08T09:38:18;23.90;99.90
2447;DHT22;26430;48.818;9.244;2023-09-08T09:40:45;24.10;99.90
2447;DHT22;26430;48.818;9.244;2023-09-08T09:43:11;24.30;99.90
2447;DHT22;26430;48.818;9.244;2023-09-08T09:45:38;24.60;99.90
2447;DHT22;26430;48.818;9.244;2023-09-08T09:48:04;25.20;99.90
2447;DHT22;26430;48.818;9.244;2023-09-08T09:50:32;25.80;99.90
2447;DHT22;26430;48.818;9.244;2023-09-08T09:52:59;26.80;99.90
2447;DHT22;26430;48.818;9.244;2023-09-08T09:55:26;26.60;99.90
2447;DHT22;26430;48.818;9.244;2023-09-08T09:57:56;27.60;99.90
2447;DHT22;26430;48.818;9.244;2023-09-08T10:00:27;28.90;99.90
2447;DHT22;26430;48.818;9.244;2023-09-08T10:02:54;29.80;99.90
2447;DHT22;26430;48.818;9.244;2023-09-08T10:05:20;30.60;99.90
2447;DHT22;26430;48.818;9.244;2023-09-08T10:07:47;30.90;99.90
2447;DHT22;26430;48.818;9.244;2023-09-08T10:10:14;31.90;99.90
2447;DHT22;26430;48.818;9.244;2023-09-08T10:12:45;32.40;99.80
2447;DHT22;26430;48.818;9.244;2023-09-08T10:15:12;32.90;97.70
2447;DHT22;26430;48.818;9.244;2023-09-08T10:17:40;33.40;95.90
2447;DHT22;26430;48.818;9.244;2023-09-08T10:20:08;33.50;95.00
2447;DHT22;26430;48.818;9.244;2023-09-08T10:22:41;33.70;94.00
2447;DHT22;26430;48.818;9.244;2023-09-08T10:25:09;34.10;93.40
2447;DHT22;26430;48.818;9.244;2023-09-08T10:27:35;34.00;91.60
2447;DHT22;26430;48.818;9.244;2023-09-08T10:30:05;31.30;92.70
2447;DHT22;26430;48.818;9.244;2023-09-08T10:32:33;30.40;95.40
2447;DHT22;26430;48.818;9.244;2023-09-08T10:35:00;31.60;94.80
2447;DHT22;26430;48.818;9.244;2023-09-08T10:37:26;32.40;93.30
2447;DHT22;26430;48.818;9.244;2023-09-08T10:39:55;33.00;92.50
2447;DHT22;26430;48.818;9.244;2023-09-08T10:42:23;32.80;91.90
2447;DHT22;26430;48.818;9.244;2023-09-08T10:44:58;33.30;91.30
2447;DHT22;26430;48.818;9.244;2023-09-08T10:47:35;33.30;91.40
2447;DHT22;26430;48.818;9.244;2023-09-08T10:50:05;33.30;91.10
2447;DHT22;26430;48.818;9.244;2023-09-08T10:52:32;33.30;90.60
2447;DHT22;26430;48.818;9.244;2023-09-08T10:54:58;33.10;90.20
2447;DHT22;26430;48.818;9.244;2023-09-08T10:57:25;32.70;91.10
2447;DHT22;26430;48.818;9.244;2023-09-08T11:02:34;31.40;91.00
2447;DHT22;26430;48.818;9.244;2023-09-08T11:05:02;30.70;91.70
2447;DHT22;26430;48.818;9.244;2023-09-08T11:07:30;30.10;92.40
2447;DHT22;26430;48.818;9.244;2023-09-08T11:09:56;29.70;94.00
2447;DHT22;26430;48.818;9.244;2023-09-08T11:12:22;30.00;94.20
2447;DHT22;26430;48.818;9.244;2023-09-08T11:14:49;30.50;94.40
2447;DHT22;26430;48.818;9.244;2023-09-08T11:17:15;29.70;93.30
2447;DHT22;26430;48.818;9.244;2023-09-08T11:19:48;29.50;94.40
2447;DHT22;26430;48.818;9.244;2023-09-08T11:22:15;29.80;94.40
2447;DHT22;26430;48.818;9.244;2023-09-08T11:24:42;30.10;94.00
2447;DHT22;26430;48.818;9.244;2023-09-08T11:27:08;29.90;95.30
2447;DHT22;26430;48.818;9.244;2023-09-08T11:29:34;30.20;95.00
2447;DHT22;26430;48.818;9.244;2023-09-08T11:32:00;30.50;94.40
2447;DHT22;26430;48.818;9.244;2023-09-08T11:34:25;30.60;94.30
2447;DHT22;26430;48.818;9.244;2023-09-08T11:36:51;30.90;93.90
2447;DHT22;26430;48.818;9.244;2023-09-08T11:39:18;31.10;94.20
2447;DHT22;26430;48.818;9.244;2023-09-08T11:41:44;31.20;94.20
2447;DHT22;26430;48.818;9.244;2023-09-08T11:44:15;31.10;93.30
2447;DHT22;26430;48.818;9.244;2023-09-08T11:46:41;31.10;92.60
2447;DHT22;26430;48.818;9.244;2023-09-08T11:49:07;30.60;92.70
2447;DHT22;26430;48.818;9.244;2023-09-08T11:51:32;30.90;93.60
2447;DHT22;26430;48.818;9.244;2023-09-08T11:53:58;31.10;93.70
2447;DHT22;26430;48.818;9.244;2023-09-08T11:56:25;31.20;93.60
2447;DHT22;26430;48.818;9.244;2023-09-08T11:58:52;31.30;93.20
2447;DHT22;26430;48.818;9.244;2023-09-08T12:01:18;31.30;92.30
2447;DHT22;26430;48.818;9.244;2023-09-08T12:03:54;30.60;91.60
2447;DHT22;26430;48.818;9.244;2023-09-08T12:06:24;30.70;92.60
2447;DHT22;26430;48.818;9.244;2023-09-08T12:08:50;30.80;92.60
2447;DHT22;26430;48.818;9.244;2023-09-08T12:11:16;30.90;92.40
2447;DHT22;26430;48.818;9.244;2023-09-08T12:13:42;31.00;91.90
2447;DHT22;26430;48.818;9.244;2023-09-08T12:16:20;30.90;92.70
2447;DHT22;26430;48.818;9.244;2023-09-08T12:18:48;31.10;92.90
2447;DHT22;26430;48.818;9.244;2023-09-08T12:21:15;31.00;93.00
2447;DHT22;26430;48.818;9.244;2023-09-08T12:23:51;31.00;92.70
2447;DHT22;26430;48.818;9.244;2023-09-08T12:26:17;31.10;92.40
2447;DHT22;26430;48.818;9.244;2023-09-08T12:28:43;31.10;92.10
2447;DHT22;26430;48.818;9.244;2023-09-08T12:31:09;30.80;92.70
2447;DHT22;26430;48.818;9.244;2023-09-08T12:33:35;30.90;92.10
2447;DHT22;26430;48.818;9.244;2023-09-08T12:36:13;31.00;92.30
2447;DHT22;26430;48.818;9.244;2023-09-08T12:38:40;31.10;92.30
2447;DHT22;26430;48.818;9.244;2023-09-08T12:41:06;30.90;92.00
2447;DHT22;26430;48.818;9.244;2023-09-08T12:43:31;30.60;91.60
2447;DHT22;26430;48.818;9.244;2023-09-08T12:45:57;30.60;92.40
2447;DHT22;26430;48.818;9.244;2023-09-08T12:48:23;30.80;92.30
2447;DHT22;26430;48.818;9.244;2023-09-08T12:50:49;30.80;91.90
2447;DHT22;26430;48.818;9.244;2023-09-08T12:53:15;30.80;91.70
2447;DHT22;26430;48.818;9.244;2023-09-08T12:55:42;30.80;92.10
2447;DHT22;26430;48.818;9.244;2023-09-08T12:58:07;30.90;92.60
2447;DHT22;26430;48.818;9.244;2023-09-08T13:00:33;31.00;92.30
2447;DHT22;26430;48.818;9.244;2023-09-08T13:02:58;31.00;92.00
2447;DHT22;26430;48.818;9.244;2023-09-08T13:05:24;30.90;91.60
2447;DHT22;26430;48.818;9.244;2023-09-08T13:07:50;30.90;92.20
2447;DHT22;26430;48.818;9.244;2023-09-08T13:10:18;31.10;91.90
2447;DHT22;26430;48.818;9.244;2023-09-08T13:12:45;31.20;91.20
2447;DHT22;26430;48.818;9.244;2023-09-08T13:15:11;31.20;90.70
2447;DHT22;26430;48.818;9.244;2023-09-08T13:17:37;31.20;91.80
2447;DHT22;26430;48.818;9.244;2023-09-08T13:20:03;31.10;91.50
2447;DHT22;26430;48.818;9.244;2023-09-08T13:22:28;31.10;91.40
2447;DHT22;26430;48.818;9.244;2023-09-08T13:24:54;31.10;92.00
2447;DHT22;26430;48.818;9.244;2023-09-08T13:27:20;31.00;91.50
2447;DHT22;26430;48.818;9.244;2023-09-08T13:29:46;31.00;92.10
2447;DHT22;26430;48.818;9.244;2023-09-08T13:32:11;31.10;91.20
2447;DHT22;26430;48.818;9.244;2023-09-08T13:34:37;31.00;91.80
2447;DHT22;26430;48.818;9.244;2023-09-08T13:37:04;30.80;92.70
2447;DHT22;26430;48.818;9.244;2023-09-08T13:39:29;30.90;92.00
2447;DHT22;26430;48.818;9.244;2023-09-08T13:41:58;31.10;91.40
2447;DHT22;26430;48.818;9.244;2023-09-08T13:44:24;31.10;91.00
2447;DHT22;26430;48.818;9.244;2023-09-08T13:46:51;30.90;90.80
2447;DHT22;26430;48.818;9.244;2023-09-08T13:49:16;30.80;90.80
2447;DHT22;26430;48.818;9.244;2023-09-08T13:51:42;30.80;91.30
2447;DHT22;26430;48.818;9.244;2023-09-08T13:54:09;30.90;90.60
2447;DHT22;26430;48.818;9.244;2023-09-08T13:56:35;30.90;90.60
2447;DHT22;26430;48.818;9.244;2023-09-08T13:59:03;30.90;91.50
2447;DHT22;26430;48.818;9.244;2023-09-08T14:01:29;31.00;90.40
2447;DHT22;26430;48.818;9.244;2023-09-08T14:03:56;30.90;88.90
2447;DHT22;26430;48.818;9.244;2023-09-08T14:06:22;30.60;89.90
2447;DHT22;26430;48.818;9.244;2023-09-08T14:08:49;30.60;91.10
2447;DHT22;26430;48.818;9.244;2023-09-08T14:11:14;30.60;89.60
2447;DHT22;26430;48.818;9.244;2023-09-08T14:13:40;30.50;87.90
2447;DHT22;26430;48.818;9.244;2023-09-08T14:16:06;30.60;88.70
2447;DHT22;26430;48.818;9.244;2023-09-08T14:18:31;30.60;90.50
2447;DHT22;26430;48.818;9.244;2023-09-08T14:20:57;30.60;90.30
2447;DHT22;26430;48.818;9.244;2023-09-08T14:23:22;30.50;90.50
2447;DHT22;26430;48.818;9.244;2023-09-08T14:25:48;30.50;90.00
2447;DHT22;26430;48.818;9.244;2023-09-08T14:28:13;30.50;91.10
2447;DHT22;26430;48.818;9.244;2023-09-08T14:30:39;30.30;91.00
2447;DHT22;26430;48.818;9.244;2023-09-08T14:33:06;30.30;90.90
2447;DHT22;26430;48.818;9.244;2023-09-08T14:35:32;30.40;90.60
2447;DHT22;26430;48.818;9.244;2023-09-08T14:37:58;30.20;89.50
2447;DHT22;26430;48.818;9.244;2023-09-08T14:40:23;29.90;90.00
2447;DHT22;26430;48.818;9.244;2023-09-08T14:42:49;29.90;89.20
2447;DHT22;26430;48.818;9.244;2023-09-08T14:45:14;30.00;90.70
2447;DHT22;26430;48.818;9.244;2023-09-08T14:47:40;30.10;90.20
2447;DHT22;26430;48.818;9.244;2023-09-08T14:50:06;30.00;89.80
2447;DHT22;26430;48.818;9.244;2023-09-08T14:52:32;30.00;90.30
2447;DHT22;26430;48.818;9.244;2023-09-08T14:54:57;30.00;91.00
2447;DHT22;26430;48.818;9.244;2023-09-08T14:57:23;30.00;90.80
2447;DHT22;26430;48.818;9.244;2023-09-08T14:59:48;29.80;90.50
2447;DHT22;26430;48.818;9.244;2023-09-08T15:02:14;29.90;91.50
2447;DHT22;26430;48.818;9.244;2023-09-08T15:04:40;29.90;91.60
2447;DHT22;26430;48.818;9.244;2023-09-08T15:07:06;30.00;91.10
2447;DHT22;26430;48.818;9.244;2023-09-08T15:09:32;30.10;90.60
2447;DHT22;26430;48.818;9.244;2023-09-08T15:11:58;30.20;90.30
2447;DHT22;26430;48.818;9.244;2023-09-08T15:14:24;30.30;90.50
2447;DHT22;26430;48.818;9.244;2023-09-08T15:16:49;30.30;90.80
2447;DHT22;26430;48.818;9.244;2023-09-08T15:19:15;30.20;91.20
2447;DHT22;26430;48.818;9.244;2023-09-08T15:21:40;30.20;90.70
2447;DHT22;26430;48.818;9.244;2023-09-08T15:24:06;30.10;89.90
2447;DHT22;26430;48.818;9.244;2023-09-08T15:26:32;30.10;89.80
2447;DHT22;26430;48.818;9.244;2023-09-08T15:28:58;30.10;90.90
2447;DHT22;26430;48.818;9.244;2023-09-08T15:31:25;29.90;90.30
2447;DHT22;26430;48.818;9.244;2023-09-08T15:33:50;29.80;90.40
2447;DHT22;26430;48.818;9.244;2023-09-08T15:36:17;29.80;91.30
2447;DHT22;26430;48.818;9.244;2023-09-08T15:38:43;29.80;91.40
2447;DHT22;26430;48.818;9.244;2023-09-08T15:43:39;29.60;91.60
2447;DHT22;26430;48.818;9.244;2023-09-08T15:46:06;29.60;91.70